createdAt,value
2019-02-09T00:02:07.173Z,9.90
2019-02-09T00:04:37.529Z,9.90
2019-02-09T00:07:07.898Z,9.90
2019-02-09T00:09:38.246Z,9.90
2019-02-09T00:12:08.894Z,10.00
2019-02-09T00:14:39.542Z,9.90
2019-02-09T00:17:09.889Z,9.80
2019-02-09T00:19:40.498Z,9.70
2019-02-09T00:22:11.086Z,9.80
2019-02-09T00:24:41.684Z,9.80
2019-02-09T00:27:12.122Z,9.80
2019-02-09T00:29:46.479Z,9.70
2019-02-09T00:32:14.479Z,9.70
2019-02-09T00:34:44.947Z,9.70
2019-02-09T00:37:15.698Z,9.70
2019-02-09T00:39:46.000Z,9.60
2019-02-09T00:42:16.454Z,9.60
2019-02-09T00:44:47.077Z,9.60
2019-02-09T00:47:17.450Z,9.50
2019-02-09T00:49:47.781Z,9.60
2019-02-09T00:52:18.244Z,9.50
2019-02-09T00:54:48.602Z,9.60
2019-02-09T00:57:19.003Z,9.60
2019-02-09T00:59:54.237Z,9.50
2019-02-09T01:02:21.691Z,9.60
2019-02-09T01:04:52.000Z,9.50
2019-02-09T01:07:22.304Z,9.50
2019-02-09T01:09:52.900Z,9.40
2019-02-09T01:12:23.308Z,9.40
2019-02-09T01:14:53.663Z,9.40
2019-02-09T01:17:24.110Z,9.40
2019-02-09T01:19:54.434Z,9.40
2019-02-09T01:22:24.813Z,9.40
2019-02-09T01:24:55.155Z,9.40
2019-02-09T01:27:25.593Z,9.30
2019-02-09T01:30:02.220Z,9.40
2019-02-09T01:32:28.308Z,9.40
2019-02-09T01:34:58.670Z,9.40
2019-02-09T01:37:29.013Z,9.40
2019-02-09T01:39:59.331Z,9.50
2019-02-09T01:42:29.808Z,9.30
2019-02-09T01:45:00.258Z,9.40
2019-02-09T01:47:31.155Z,9.30
2019-02-09T01:50:01.841Z,9.30
2019-02-09T01:52:32.145Z,9.40
2019-02-09T01:55:02.495Z,9.40
2019-02-09T01:57:32.791Z,9.40
2019-02-09T02:00:10.483Z,9.40
2019-02-09T02:02:35.963Z,9.40
2019-02-09T02:05:07.580Z,9.50
2019-02-09T02:07:38.309Z,9.40
2019-02-09T02:10:13.902Z,9.40
2019-02-09T02:12:44.197Z,9.40
2019-02-09T02:15:17.524Z,9.40
2019-02-09T02:17:47.907Z,9.30
2019-02-09T02:20:21.445Z,9.40
2019-02-09T02:22:52.023Z,9.40
2019-02-09T02:25:23.678Z,9.50
2019-02-09T02:27:54.521Z,9.50
2019-02-09T02:30:43.988Z,9.50
2019-02-09T02:33:14.340Z,9.50
2019-02-09T02:35:45.032Z,9.50
2019-02-09T02:38:15.684Z,9.40
2019-02-09T02:40:45.984Z,9.40
2019-02-09T02:43:16.354Z,9.40
2019-02-09T02:45:47.092Z,9.40
2019-02-09T02:48:17.970Z,9.50
2019-02-09T02:50:49.230Z,9.40
2019-02-09T02:53:19.587Z,9.50
2019-02-09T02:55:51.980Z,9.40
2019-02-09T02:58:22.770Z,9.30
2019-02-09T03:00:53.109Z,9.20
2019-02-09T03:03:23.438Z,9.40
2019-02-09T03:05:54.052Z,9.40
2019-02-09T03:08:24.374Z,9.30
2019-02-09T03:10:54.750Z,9.30
2019-02-09T03:13:25.115Z,9.40
2019-02-09T03:15:55.436Z,9.50
2019-02-09T03:18:27.814Z,9.40
2019-02-09T03:20:58.187Z,9.30
2019-02-09T03:23:28.618Z,9.40
2019-02-09T03:25:59.210Z,9.40
2019-02-09T03:28:29.575Z,9.40
2019-02-09T03:31:00.278Z,9.40
2019-02-09T03:33:30.589Z,9.40
2019-02-09T03:36:00.925Z,9.40
2019-02-09T03:38:31.376Z,9.40
2019-02-09T03:41:01.729Z,9.40
2019-02-09T03:43:32.052Z,9.40
2019-02-09T03:46:02.613Z,9.40
2019-02-09T03:48:32.992Z,9.40
2019-02-09T03:51:03.368Z,9.50
2019-02-09T03:53:33.656Z,9.40
2019-02-09T03:56:04.049Z,9.60
2019-02-09T03:58:34.384Z,9.60
2019-02-09T04:01:04.932Z,9.50
2019-02-09T04:03:35.568Z,9.60
2019-02-09T04:06:06.254Z,9.50
2019-02-09T04:08:36.603Z,9.50
2019-02-09T04:11:07.308Z,9.50
2019-02-09T04:13:37.647Z,9.40
2019-02-09T04:16:07.970Z,9.50
2019-02-09T04:18:38.331Z,9.50
2019-02-09T04:21:08.687Z,9.50
2019-02-09T04:23:39.050Z,9.60
2019-02-09T04:26:09.673Z,9.60
2019-02-09T04:28:40.366Z,9.60
2019-02-09T04:31:10.770Z,9.70
2019-02-09T04:33:41.235Z,9.70
2019-02-09T04:36:11.559Z,9.70
2019-02-09T04:38:41.825Z,9.70
2019-02-09T04:41:12.194Z,9.70
2019-02-09T04:43:42.707Z,9.80
2019-02-09T04:46:13.308Z,9.80
2019-02-09T04:48:43.644Z,9.80
2019-02-09T04:51:14.005Z,9.80
2019-02-09T04:53:44.619Z,9.70
2019-02-09T04:56:14.914Z,9.70
2019-02-09T04:58:45.246Z,9.80
2019-02-09T05:01:15.594Z,9.70
2019-02-09T05:03:46.366Z,10.00
2019-02-09T05:06:17.035Z,9.80
2019-02-09T05:08:47.364Z,9.80
2019-02-09T05:11:17.974Z,9.80
2019-02-09T05:13:48.382Z,9.80
2019-02-09T05:16:19.087Z,9.80
2019-02-09T05:18:49.442Z,9.60
2019-02-09T05:21:20.130Z,9.70
2019-02-09T05:23:50.701Z,9.60
2019-02-09T05:26:21.184Z,9.40
2019-02-09T05:28:51.822Z,9.30
2019-02-09T05:31:23.448Z,9.40
2019-02-09T05:33:54.285Z,9.30
2019-02-09T05:36:24.568Z,9.20
2019-02-09T05:38:55.298Z,9.20
2019-02-09T05:41:25.690Z,9.00
2019-02-09T05:43:56.162Z,9.10
2019-02-09T05:46:26.565Z,9.10
2019-02-09T05:48:56.853Z,9.10
2019-02-09T05:51:27.439Z,9.20
2019-02-09T05:53:57.810Z,9.10
2019-02-09T05:56:28.131Z,9.10
2019-02-09T05:58:58.761Z,9.30
2019-02-09T06:01:32.347Z,9.10
2019-02-09T06:04:01.193Z,9.20
2019-02-09T06:06:31.515Z,9.20
2019-02-09T06:09:02.105Z,9.20
2019-02-09T06:11:32.458Z,9.30
2019-02-09T06:14:03.044Z,9.40
2019-02-09T06:16:33.777Z,9.30
2019-02-09T06:19:04.176Z,9.40
2019-02-09T06:21:34.600Z,9.50
2019-02-09T06:24:05.110Z,9.50
2019-02-09T06:26:35.708Z,9.60
2019-02-09T06:29:06.839Z,9.60
2019-02-09T06:31:40.869Z,9.40
2019-02-09T06:34:09.823Z,9.60
2019-02-09T06:36:40.153Z,9.50
2019-02-09T06:39:13.309Z,9.50
2019-02-09T06:41:43.610Z,9.50
2019-02-09T06:44:14.217Z,9.50
2019-02-09T06:46:45.296Z,9.60
2019-02-09T06:49:15.942Z,9.60
2019-02-09T06:51:47.190Z,9.60
2019-02-09T06:54:17.803Z,9.60
2019-02-09T06:56:48.768Z,9.70
2019-02-09T06:59:19.118Z,9.70
2019-02-09T07:01:49.464Z,9.90
2019-02-09T07:04:19.784Z,9.70
2019-02-09T07:06:50.114Z,9.90
2019-02-09T07:09:20.810Z,9.80
2019-02-09T07:11:51.154Z,9.70
2019-02-09T07:14:22.036Z,9.60
2019-02-09T07:16:52.929Z,9.70
2019-02-09T07:19:23.543Z,9.70
2019-02-09T07:21:53.842Z,9.60
2019-02-09T07:24:24.190Z,9.80
2019-02-09T07:26:54.521Z,10.00
2019-02-09T07:29:24.897Z,10.00
2019-02-09T07:31:56.478Z,9.90
2019-02-09T07:34:27.498Z,10.00
2019-02-09T07:36:57.878Z,9.90
2019-02-09T07:39:28.246Z,10.00
2019-02-09T07:41:58.543Z,9.90
2019-02-09T07:44:28.904Z,9.90
2019-02-09T07:46:59.219Z,9.90
2019-02-09T07:49:29.817Z,10.00
2019-02-09T07:52:00.414Z,10.20
2019-02-09T07:54:30.818Z,10.20
2019-02-09T07:57:01.201Z,10.00
2019-02-09T07:59:31.528Z,10.00
2019-02-09T08:02:04.625Z,10.10
2019-02-09T08:04:33.947Z,10.10
2019-02-09T08:07:04.441Z,10.30
2019-02-09T08:09:35.066Z,10.20
2019-02-09T08:12:06.212Z,10.30
2019-02-09T08:14:36.538Z,10.20
2019-02-09T08:17:06.923Z,10.30
2019-02-09T08:19:37.267Z,10.10
2019-02-09T08:22:07.694Z,10.40
2019-02-09T08:24:38.344Z,10.40
2019-02-09T08:27:08.858Z,10.50
2019-02-09T08:29:39.479Z,10.50
2019-02-09T08:32:13.015Z,10.60
2019-02-09T08:34:43.598Z,10.50
2019-02-09T08:37:13.920Z,10.40
2019-02-09T08:39:44.273Z,10.50
2019-02-09T08:42:14.900Z,10.40
2019-02-09T08:44:45.238Z,10.50
2019-02-09T08:47:15.604Z,10.50
2019-02-09T08:49:46.203Z,10.60
2019-02-09T08:52:16.780Z,10.60
2019-02-09T08:54:47.355Z,10.40
2019-02-09T08:57:17.933Z,10.70
2019-02-09T08:59:48.340Z,10.80
2019-02-09T09:02:20.717Z,10.80
2019-02-09T09:04:50.979Z,10.80
2019-02-09T09:07:21.606Z,10.80
2019-02-09T09:09:51.931Z,10.80
2019-02-09T09:12:24.381Z,11.00
2019-02-09T09:14:54.709Z,10.80
2019-02-09T09:17:25.388Z,10.70
2019-02-09T09:19:55.713Z,10.90
2019-02-09T09:22:26.545Z,10.90
2019-02-09T09:25:03.575Z,11.00
2019-02-09T09:27:34.983Z,11.00
2019-02-09T09:30:15.421Z,11.00
2019-02-09T09:32:46.499Z,11.20
2019-02-09T09:35:17.160Z,11.20
2019-02-09T09:37:47.849Z,11.30
2019-02-09T09:40:24.913Z,11.40
2019-02-09T09:42:55.471Z,11.40
2019-02-09T09:45:29.755Z,11.30
2019-02-09T09:48:00.382Z,11.40
2019-02-09T09:50:31.829Z,11.20
2019-02-09T09:53:02.135Z,11.30
2019-02-09T09:55:32.519Z,11.30
2019-02-09T09:58:02.828Z,11.20
2019-02-09T10:00:33.643Z,11.40
2019-02-09T10:03:04.176Z,11.20
2019-02-09T10:05:34.629Z,11.40
2019-02-09T10:08:06.070Z,11.30
2019-02-09T10:10:36.721Z,11.40
2019-02-09T10:13:08.049Z,11.40
2019-02-09T10:15:38.574Z,11.20
2019-02-09T10:18:08.907Z,11.20
2019-02-09T10:20:39.191Z,11.20
2019-02-09T10:23:09.881Z,11.20
2019-02-09T10:25:40.489Z,11.20
2019-02-09T10:28:11.179Z,11.20
2019-02-09T10:30:41.591Z,11.30
2019-02-09T10:33:12.618Z,11.40
2019-02-09T10:35:42.972Z,11.50
2019-02-09T10:38:13.318Z,11.50
2019-02-09T10:40:43.657Z,11.40
2019-02-09T10:43:13.951Z,11.30
2019-02-09T10:45:44.480Z,11.20
2019-02-09T10:48:15.175Z,10.30
2019-02-09T10:50:47.131Z,10.10
2019-02-09T10:53:18.291Z,10.00
2019-02-09T10:55:49.022Z,9.80
2019-02-09T10:58:20.239Z,9.70
2019-02-09T11:01:08.665Z,9.90
2019-02-09T11:03:39.199Z,10.20
2019-02-09T11:06:09.667Z,10.10
2019-02-09T11:08:40.616Z,10.40
2019-02-09T11:11:11.040Z,10.40
2019-02-09T11:13:41.447Z,10.80
2019-02-09T11:16:12.097Z,11.00
2019-02-09T11:18:42.680Z,11.20
2019-02-09T11:21:13.027Z,11.30
2019-02-09T11:23:43.519Z,11.30
2019-02-09T11:26:13.799Z,11.20
2019-02-09T11:28:44.439Z,11.30
2019-02-09T11:31:15.197Z,11.30
2019-02-09T11:33:45.915Z,11.30
2019-02-09T11:36:16.745Z,11.20
2019-02-09T11:38:47.066Z,11.20
2019-02-09T11:41:17.419Z,11.30
2019-02-09T11:43:47.742Z,11.60
2019-02-09T11:46:18.108Z,11.60
2019-02-09T11:48:48.466Z,11.80
2019-02-09T11:51:18.823Z,11.60
2019-02-09T11:53:49.251Z,11.70
2019-02-09T11:56:19.589Z,12.00
2019-02-09T11:58:50.006Z,11.90
2019-02-09T12:01:20.859Z,12.00
2019-02-09T12:03:51.511Z,12.10
2019-02-09T12:06:21.913Z,11.90
2019-02-09T12:08:52.259Z,12.00
2019-02-09T12:11:22.835Z,11.80
2019-02-09T12:13:55.417Z,11.80
2019-02-09T12:16:26.070Z,12.00
2019-02-09T12:18:56.376Z,11.70
2019-02-09T12:21:26.717Z,11.90
2019-02-09T12:23:57.311Z,12.10
2019-02-09T12:26:28.469Z,12.10
2019-02-09T12:28:58.853Z,12.10
2019-02-09T12:31:29.220Z,11.90
2019-02-09T12:33:59.771Z,11.80
2019-02-09T12:36:30.511Z,11.90
2019-02-09T12:39:01.092Z,11.80
2019-02-09T12:41:31.473Z,11.90
2019-02-09T12:44:07.965Z,12.00
2019-02-09T12:46:39.400Z,12.10
2019-02-09T12:49:09.849Z,11.90
2019-02-09T12:51:40.149Z,12.00
2019-02-09T12:54:10.578Z,12.00
2019-02-09T12:56:41.192Z,12.10
2019-02-09T12:59:14.959Z,12.00
2019-02-09T13:01:43.988Z,12.10
2019-02-09T13:04:14.793Z,12.10
2019-02-09T13:06:45.120Z,12.10
2019-02-09T13:09:15.712Z,12.00
2019-02-09T13:11:46.610Z,11.90
2019-02-09T13:14:17.079Z,12.10
2019-02-09T13:16:47.428Z,12.10
2019-02-09T13:19:17.886Z,12.10
2019-02-09T13:21:48.237Z,12.40
2019-02-09T13:24:18.576Z,12.00
2019-02-09T13:26:49.044Z,12.10
2019-02-09T13:29:19.906Z,12.10
2019-02-09T13:31:50.251Z,11.90
2019-02-09T13:34:20.874Z,12.00
2019-02-09T13:36:51.282Z,11.90
2019-02-09T13:39:21.620Z,11.90
2019-02-09T13:41:52.265Z,11.80
2019-02-09T13:44:22.616Z,11.70
2019-02-09T13:46:52.970Z,11.50
2019-02-09T13:49:23.301Z,11.30
2019-02-09T13:51:53.643Z,11.10
2019-02-09T13:54:34.659Z,10.90
2019-02-09T13:57:05.217Z,10.40
2019-02-09T13:59:35.517Z,9.90
2019-02-09T14:02:08.506Z,9.60
2019-02-09T14:04:38.804Z,9.30
2019-02-09T14:07:09.173Z,9.40
2019-02-09T14:09:40.649Z,9.10
2019-02-09T14:12:10.969Z,9.20
2019-02-09T14:14:41.462Z,9.20
2019-02-09T14:17:12.512Z,9.50
2019-02-09T14:19:43.389Z,9.60
2019-02-09T14:22:22.191Z,9.60
2019-02-09T14:24:52.842Z,9.60
2019-02-09T14:27:24.695Z,9.80
2019-02-09T14:29:55.020Z,10.00
2019-02-09T14:32:25.606Z,9.90
2019-02-09T14:34:56.009Z,10.00
2019-02-09T14:38:46.676Z,10.10
2019-02-09T14:41:17.273Z,10.10
2019-02-09T14:43:47.576Z,10.30
2019-02-09T14:47:00.752Z,10.50
2019-02-09T14:49:31.364Z,10.50
2019-02-09T14:52:10.900Z,10.60
2019-02-09T14:54:41.484Z,10.50
2019-02-09T14:57:11.823Z,10.60
2019-02-09T14:59:42.563Z,10.70
2019-02-09T15:02:13.406Z,10.90
2019-02-09T15:05:02.835Z,11.10
2019-02-09T15:07:33.189Z,11.20
2019-02-09T15:10:04.057Z,11.20
2019-02-09T15:12:45.904Z,11.40
2019-02-09T15:16:02.584Z,11.30
2019-02-09T15:18:32.960Z,11.50
2019-02-09T15:21:14.558Z,11.60
2019-02-09T15:23:44.967Z,11.40
2019-02-09T15:26:22.293Z,11.30
2019-02-09T15:28:52.933Z,11.10
2019-02-09T15:31:25.445Z,11.10
2019-02-09T15:33:56.434Z,11.30
2019-02-09T15:36:26.825Z,11.30
2019-02-09T15:38:57.211Z,11.30
2019-02-09T15:41:27.795Z,11.30
2019-02-09T15:43:58.217Z,11.30
2019-02-09T15:46:28.589Z,11.50
2019-02-09T15:48:59.198Z,11.40
2019-02-09T15:51:29.532Z,11.30
2019-02-09T15:53:59.871Z,11.20
2019-02-09T15:56:30.534Z,11.30
2019-02-09T15:59:01.169Z,11.30
2019-02-09T16:01:32.616Z,11.40
2019-02-09T16:04:02.987Z,11.30
2019-02-09T16:06:33.578Z,11.30
2019-02-09T16:09:05.480Z,11.30
2019-02-09T16:11:36.198Z,11.50
2019-02-09T16:14:06.713Z,11.30
2019-02-09T16:16:44.140Z,11.30
2019-02-09T16:19:14.540Z,11.30
2019-02-09T16:21:48.090Z,11.30
2019-02-09T16:24:19.465Z,11.30
2019-02-09T16:26:49.813Z,11.10
2019-02-09T16:29:20.167Z,11.10
2019-02-09T16:31:50.777Z,11.00
2019-02-09T16:34:25.616Z,11.10
2019-02-09T16:36:54.673Z,11.10
2019-02-09T16:39:25.100Z,10.90
2019-02-09T16:41:55.473Z,10.70
2019-02-09T16:44:29.971Z,10.90
2019-02-09T16:47:00.269Z,10.80
2019-02-09T16:49:32.606Z,10.90
2019-02-09T16:52:02.962Z,10.90
2019-02-09T16:54:34.646Z,10.80
2019-02-09T16:57:05.303Z,10.90
2019-02-09T16:59:36.050Z,10.70
2019-02-09T17:02:06.512Z,10.80
2019-02-09T17:04:40.432Z,10.70
2019-02-09T17:07:11.257Z,10.70
2019-02-09T17:09:44.771Z,10.60
2019-02-09T17:12:15.133Z,10.50
2019-02-09T17:14:45.518Z,10.60
2019-02-09T17:17:15.865Z,10.70
2019-02-09T17:19:46.208Z,10.60
2019-02-09T17:22:16.595Z,10.70
2019-02-09T17:24:47.363Z,10.70
2019-02-09T17:27:17.674Z,10.60
2019-02-09T17:29:48.152Z,10.60
2019-02-09T17:32:18.464Z,10.70
2019-02-09T17:34:48.826Z,10.70
2019-02-09T17:37:40.207Z,10.60
2019-02-09T17:40:14.015Z,10.60
2019-02-09T17:42:44.394Z,10.60
2019-02-09T17:45:19.738Z,10.70
2019-02-09T17:47:50.063Z,10.60
2019-02-09T17:50:20.514Z,10.50
2019-02-09T17:52:50.858Z,10.60
2019-02-09T17:55:21.541Z,10.70
2019-02-09T17:57:52.267Z,10.70
2019-02-09T18:00:45.273Z,10.70
2019-02-09T18:03:24.874Z,10.70
2019-02-09T18:05:55.283Z,10.80
2019-02-09T18:08:25.635Z,10.80
2019-02-09T18:10:55.967Z,10.70
2019-02-09T18:13:26.880Z,10.70
2019-02-09T18:15:58.128Z,10.70
2019-02-09T18:18:28.817Z,10.70
2019-02-09T18:20:59.342Z,10.80
2019-02-09T18:23:38.063Z,10.80
2019-02-09T18:26:08.428Z,10.80
2019-02-09T18:28:38.840Z,10.80
2019-02-09T18:31:09.211Z,10.60
2019-02-09T18:33:41.002Z,10.80
2019-02-09T18:36:11.328Z,10.80
2019-02-09T18:38:41.994Z,10.70
2019-02-09T18:41:12.806Z,10.60
2019-02-09T18:43:43.185Z,10.80
2019-02-09T18:46:13.583Z,10.70
2019-02-09T18:48:44.071Z,10.70
2019-02-09T18:51:17.513Z,10.80
2019-02-09T18:53:48.286Z,10.70
2019-02-09T18:56:18.678Z,10.90
2019-02-09T18:58:49.431Z,10.70
2019-02-09T19:01:21.820Z,10.80
2019-02-09T19:03:52.204Z,10.80
2019-02-09T19:06:23.359Z,10.80
2019-02-09T19:08:53.694Z,10.70
2019-02-09T19:11:24.389Z,10.70
2019-02-09T19:13:54.758Z,10.70
2019-02-09T19:16:25.489Z,10.80
2019-02-09T19:18:55.869Z,10.90
2019-02-09T19:21:26.351Z,10.70
2019-02-09T19:23:56.672Z,10.70
2019-02-09T19:26:27.123Z,10.60
2019-02-09T19:28:58.852Z,10.50
2019-02-09T19:31:29.183Z,10.60
2019-02-09T19:33:59.876Z,10.60
2019-02-09T19:36:30.291Z,10.70
2019-02-09T19:39:00.658Z,10.70
2019-02-09T19:41:31.028Z,10.40
2019-02-09T19:44:01.767Z,10.40
2019-02-09T19:46:32.143Z,10.50
2019-02-09T19:49:02.518Z,10.50
2019-02-09T19:51:33.372Z,10.50
2019-02-09T19:54:03.758Z,10.50
2019-02-09T19:56:34.395Z,10.40
2019-02-09T19:59:05.118Z,10.50
2019-02-09T20:01:35.460Z,10.40
2019-02-09T20:04:05.851Z,10.40
2019-02-09T20:06:36.207Z,10.50
2019-02-09T20:09:09.919Z,10.50
2019-02-09T20:11:40.570Z,10.40
2019-02-09T20:14:10.936Z,10.40
2019-02-09T20:16:41.571Z,10.50
2019-02-09T20:19:11.904Z,10.40
2019-02-09T20:21:42.602Z,10.40
2019-02-09T20:24:12.948Z,10.20
2019-02-09T20:26:43.598Z,10.30
2019-02-09T20:29:14.436Z,10.10
2019-02-09T20:31:44.799Z,10.20
2019-02-09T20:34:15.172Z,10.10
2019-02-09T20:36:45.501Z,10.10
2019-02-09T20:39:16.080Z,10.20
2019-02-09T20:41:46.472Z,10.20
2019-02-09T20:44:18.724Z,10.20
2019-02-09T20:46:49.180Z,10.20
2019-02-09T20:49:20.580Z,10.20
2019-02-09T20:51:51.177Z,10.10
2019-02-09T20:54:21.864Z,10.20
2019-02-09T20:56:52.174Z,10.10
2019-02-09T20:59:23.413Z,10.20
2019-02-09T21:01:54.043Z,10.20
2019-02-09T21:04:24.394Z,10.10
2019-02-09T21:06:55.014Z,10.00
2019-02-09T21:09:25.398Z,10.10
2019-02-09T21:11:55.802Z,10.10
2019-02-09T21:14:26.170Z,10.10
2019-02-09T21:16:56.541Z,10.10
2019-02-09T21:19:27.158Z,10.00
2019-02-09T21:21:57.971Z,10.00
2019-02-09T21:24:28.333Z,10.10
2019-02-09T21:26:58.831Z,10.10
2019-02-09T21:29:29.720Z,10.00
2019-02-09T21:32:00.319Z,10.10
2019-02-09T21:34:30.674Z,10.20
2019-02-09T21:37:01.064Z,10.20
2019-02-09T21:39:33.953Z,10.30
2019-02-09T21:42:03.958Z,10.30
2019-02-09T21:44:34.314Z,10.10
2019-02-09T21:47:04.648Z,10.20
2019-02-09T21:49:34.958Z,10.30
2019-02-09T21:52:05.374Z,10.30
2019-02-09T21:54:35.775Z,10.30
2019-02-09T21:57:06.457Z,10.40
2019-02-09T21:59:36.823Z,10.40
2019-02-09T22:02:07.424Z,10.40
2019-02-09T22:04:37.759Z,10.40
2019-02-09T22:07:08.118Z,10.50
2019-02-09T22:09:38.516Z,10.40
2019-02-09T22:12:08.934Z,10.40
2019-02-09T22:14:39.377Z,10.40
2019-02-09T22:17:10.187Z,10.40
2019-02-09T22:19:40.568Z,10.30
2019-02-09T22:22:11.190Z,10.40
2019-02-09T22:24:41.727Z,10.50
2019-02-09T22:27:12.055Z,10.50
2019-02-09T22:29:42.472Z,10.40
2019-02-09T22:32:13.175Z,10.50
2019-02-09T22:34:43.495Z,10.50
2019-02-09T22:37:13.855Z,10.50
2019-02-09T22:39:44.209Z,10.60
2019-02-09T22:42:14.529Z,10.60
2019-02-09T22:44:46.071Z,10.40
2019-02-09T22:47:16.414Z,10.60
2019-02-09T22:49:46.739Z,10.60
2019-02-09T22:52:17.234Z,10.60
2019-02-09T22:54:47.873Z,10.60
2019-02-09T22:57:18.642Z,10.70
2019-02-09T22:59:48.972Z,10.50
2019-02-09T23:02:19.518Z,10.50
2019-02-09T23:05:48.103Z,10.50
2019-02-09T23:08:18.453Z,10.40
2019-02-09T23:10:49.132Z,10.40
2019-02-09T23:13:19.823Z,10.30
2019-02-09T23:15:50.177Z,10.40
2019-02-09T23:18:20.782Z,10.50
2019-02-09T23:20:51.180Z,10.40
2019-02-09T23:23:21.452Z,10.30
2019-02-09T23:25:51.830Z,10.40
2019-02-09T23:28:22.895Z,10.30
2019-02-09T23:30:53.554Z,10.20
2019-02-09T23:33:29.221Z,10.30
2019-02-09T23:35:59.829Z,10.30
2019-02-09T23:38:30.209Z,10.30
2019-02-09T23:41:13.358Z,10.40
2019-02-09T23:43:43.728Z,10.40
2019-02-09T23:46:14.087Z,10.40
2019-02-09T23:48:44.453Z,10.30
2019-02-09T23:51:15.083Z,10.30
2019-02-09T23:53:45.762Z,10.30
2019-02-09T23:56:16.449Z,10.40
2019-02-09T23:58:46.734Z,10.30
